Port Gibson, New York
Current Conditions -  °F | °C
As of 8:30 AM on Tuesday 21 Oct 2014 (Local Time) from KROC Reporting Station
Light Rain Light Rain  
Wind Chill: 10°   Ceiling: 1100
Heat Index: 10°   Visibility: 7mi
Dew Point:   Wind: 5mph
Humidity: 96%   Direction: 230°SW
Pressure: 29.82"   Gusts: NA
Location:  43.03°N, 77.16°W
Report Text: KROC 211230Z 23004KT 7SM -RA BKN011 OVC025 10/09 A2982 RMK AO2 P0002 T01000094
Loading
Personal Weather Stations






























Interactive Weather Map
Tropical Storm Tracking
New forecast layout! Learn more

10-Day Weather Forecast

Advertisements
Track Severe Weather on mobile